createdAt,value
2022-12-01T00:01:18.222Z,6.87
2022-12-01T00:03:44.399Z,6.73
2022-12-01T00:06:15.405Z,6.47
2022-12-01T00:09:02.065Z,6.83
2022-12-01T00:11:28.391Z,6.80
2022-12-01T00:13:54.509Z,7.03
2022-12-01T00:16:21.322Z,6.13
2022-12-01T00:18:52.683Z,6.87
2022-12-01T00:21:22.508Z,7.00
2022-12-01T00:23:55.889Z,6.73
2022-12-01T00:26:23.104Z,6.30
2022-12-01T00:28:51.574Z,6.83
2022-12-01T00:31:18.340Z,7.13
2022-12-01T00:33:44.952Z,7.10
2022-12-01T00:36:11.257Z,6.63
2022-12-01T00:38:37.614Z,7.20
2022-12-01T00:41:04.337Z,7.70
2022-12-01T00:43:30.957Z,6.90
2022-12-01T00:45:57.350Z,7.47
2022-12-01T00:48:23.931Z,7.73
2022-12-01T00:50:52.991Z,6.93
2022-12-01T00:53:19.501Z,7.27
2022-12-01T00:55:45.862Z,7.03
2022-12-01T00:58:12.143Z,7.10
2022-12-01T01:00:38.538Z,7.43
2022-12-01T01:03:06.405Z,7.30
2022-12-01T01:05:41.939Z,6.63
2022-12-01T01:08:14.257Z,7.20
2022-12-01T01:10:47.237Z,7.23
2022-12-01T01:13:14.904Z,7.17
2022-12-01T01:15:41.120Z,7.20
2022-12-01T01:18:10.693Z,7.13
2022-12-01T01:20:36.882Z,7.30
2022-12-01T01:23:03.148Z,7.10
2022-12-01T01:25:31.891Z,6.83
2022-12-01T01:27:58.069Z,6.80
2022-12-01T01:30:24.311Z,6.77
2022-12-01T01:32:50.511Z,7.07
2022-12-01T01:35:16.793Z,6.37
2022-12-01T01:37:42.983Z,6.47
2022-12-01T01:40:10.190Z,7.83
2022-12-01T01:42:36.586Z,7.00
2022-12-01T01:45:03.592Z,6.67
2022-12-01T01:47:37.747Z,6.30
2022-12-01T01:50:14.012Z,6.80
2022-12-01T01:52:50.720Z,6.50
2022-12-01T01:55:18.000Z,6.87
2022-12-01T01:57:45.370Z,7.07
2022-12-01T02:00:17.020Z,7.00
2022-12-01T02:02:45.903Z,7.27
2022-12-01T02:05:22.967Z,7.57
2022-12-01T02:07:55.193Z,6.80
2022-12-01T02:10:29.625Z,7.73
2022-12-01T02:13:30.029Z,7.20
2022-12-01T02:16:29.999Z,7.00
2022-12-01T02:19:46.435Z,6.83
2022-12-01T02:22:41.952Z,5.90
2022-12-01T02:25:48.172Z,6.20
2022-12-01T02:28:23.160Z,6.13
2022-12-01T02:30:58.109Z,6.90
2022-12-01T02:34:18.015Z,6.83
2022-12-01T02:37:03.333Z,6.50
2022-12-01T02:39:46.011Z,6.63
2022-12-01T02:42:49.163Z,6.37
2022-12-01T02:45:44.732Z,6.33
2022-12-01T02:48:25.071Z,5.93
2022-12-01T02:50:54.480Z,5.53
2022-12-01T02:53:21.732Z,6.00
2022-12-01T02:55:58.328Z,6.70
2022-12-01T02:58:24.974Z,6.77
2022-12-01T03:01:36.990Z,6.77
2022-12-01T03:04:41.175Z,7.30
2022-12-01T03:07:45.945Z,6.63
2022-12-01T03:10:50.729Z,6.33
2022-12-01T03:13:44.384Z,6.20
2022-12-01T03:16:36.600Z,5.93
2022-12-01T03:19:14.210Z,6.30
2022-12-01T03:22:04.705Z,6.73
2022-12-01T03:24:33.651Z,6.40
2022-12-01T03:27:02.276Z,6.37
2022-12-01T03:29:44.445Z,6.33
2022-12-01T03:32:40.138Z,6.60
2022-12-01T03:35:15.812Z,6.37
2022-12-01T03:37:56.520Z,5.97
2022-12-01T03:40:27.426Z,6.63
2022-12-01T03:43:06.676Z,6.53
2022-12-01T03:45:54.361Z,7.10
2022-12-01T03:48:23.480Z,7.00
2022-12-01T03:51:17.557Z,6.00
2022-12-01T03:54:02.051Z,6.13
2022-12-01T03:56:37.751Z,7.23
2022-12-01T03:59:09.190Z,7.17
2022-12-01T04:01:36.071Z,7.73
2022-12-01T04:04:12.399Z,7.60
2022-12-01T04:06:44.176Z,8.50
2022-12-01T04:09:10.459Z,9.10
2022-12-01T04:11:55.373Z,8.07
2022-12-01T04:14:21.714Z,8.80
2022-12-01T04:16:47.988Z,9.47
2022-12-01T04:19:14.571Z,9.37
2022-12-01T04:21:40.755Z,9.70
2022-12-01T04:24:07.339Z,10.47
2022-12-01T04:26:36.173Z,10.07
2022-12-01T04:29:06.876Z,10.30
2022-12-01T04:31:33.500Z,11.20
2022-12-01T04:34:00.490Z,10.80
2022-12-01T04:36:31.409Z,11.93
2022-12-01T04:38:57.704Z,11.10
2022-12-01T04:41:23.913Z,11.70
2022-12-01T04:43:53.825Z,10.80
2022-12-01T04:46:20.998Z,11.43
2022-12-01T04:48:47.357Z,12.17
2022-12-01T04:51:13.619Z,12.20
2022-12-01T04:53:40.064Z,12.30
2022-12-01T04:56:06.656Z,11.93
2022-12-01T04:58:36.730Z,12.40
2022-12-01T05:01:11.139Z,12.63
2022-12-01T05:03:40.390Z,12.47
2022-12-01T05:06:12.677Z,12.10
2022-12-01T05:08:39.307Z,11.50
2022-12-01T05:11:07.421Z,10.83
2022-12-01T05:13:36.314Z,12.93
2022-12-01T05:16:17.660Z,13.40
2022-12-01T05:19:13.814Z,11.97
2022-12-01T05:21:41.952Z,11.53
2022-12-01T05:24:10.471Z,11.77
2022-12-01T05:26:36.642Z,10.63
2022-12-01T05:29:03.823Z,12.33
2022-12-01T05:31:30.996Z,12.00
2022-12-01T05:33:57.322Z,11.53
2022-12-01T05:36:23.593Z,11.30
2022-12-01T05:38:50.085Z,11.80
2022-12-01T05:41:16.396Z,11.87
2022-12-01T05:43:42.600Z,10.77
2022-12-01T05:46:09.061Z,11.57
2022-12-01T05:48:35.250Z,10.73
2022-12-01T05:51:09.603Z,11.70
2022-12-01T05:53:36.079Z,10.97
2022-12-01T05:56:05.305Z,12.10
2022-12-01T05:58:34.507Z,12.20
2022-12-01T06:01:04.630Z,10.87
2022-12-01T06:03:33.140Z,12.07
2022-12-01T06:05:59.362Z,10.27
2022-12-01T06:08:25.612Z,10.47
2022-12-01T06:10:51.926Z,10.80
2022-12-01T06:13:18.207Z,10.23
2022-12-01T06:15:44.380Z,11.13
2022-12-01T06:18:10.536Z,10.80
2022-12-01T06:20:36.727Z,9.93
2022-12-01T06:23:02.919Z,10.43
2022-12-01T06:25:29.095Z,9.70
2022-12-01T06:27:57.736Z,10.17
2022-12-01T06:30:24.563Z,10.17
2022-12-01T06:32:50.960Z,10.67
2022-12-01T06:35:17.322Z,10.40
2022-12-01T06:37:43.683Z,10.30
2022-12-01T06:40:11.077Z,10.80
2022-12-01T06:42:37.411Z,9.50
2022-12-01T06:45:04.039Z,8.73
2022-12-01T06:47:30.331Z,10.43
2022-12-01T06:49:56.525Z,8.77
2022-12-01T06:52:22.739Z,8.23
2022-12-01T06:54:49.030Z,8.70
2022-12-01T06:57:15.331Z,8.67
2022-12-01T06:59:42.045Z,8.37
2022-12-01T07:02:13.142Z,8.60
2022-12-01T07:04:39.328Z,8.10
2022-12-01T07:07:06.013Z,8.37
2022-12-01T07:09:32.926Z,8.40
2022-12-01T07:11:59.218Z,8.43
2022-12-01T07:14:26.510Z,8.00
2022-12-01T07:16:53.407Z,7.67
2022-12-01T07:19:19.705Z,8.17
2022-12-01T07:21:45.972Z,7.83
2022-12-01T07:24:12.842Z,8.57
2022-12-01T07:26:40.401Z,7.23
2022-12-01T07:29:08.399Z,8.27
2022-12-01T07:31:35.073Z,8.37
2022-12-01T07:34:01.298Z,8.10
2022-12-01T07:36:27.513Z,7.93
2022-12-01T07:38:53.704Z,7.97
2022-12-01T07:41:20.274Z,8.47
2022-12-01T07:43:49.569Z,8.63
2022-12-01T07:46:24.341Z,7.30
2022-12-01T07:48:53.068Z,8.17
2022-12-01T07:51:21.695Z,8.30
2022-12-01T07:53:50.327Z,9.67
2022-12-01T07:56:18.228Z,10.13
2022-12-01T07:58:44.555Z,8.53
2022-12-01T08:01:14.433Z,9.33
2022-12-01T08:03:41.823Z,8.87
2022-12-01T08:06:09.320Z,8.57
2022-12-01T08:08:39.858Z,8.43
2022-12-01T08:11:15.576Z,9.27
2022-12-01T08:13:42.589Z,8.97
2022-12-01T08:16:15.430Z,9.93
2022-12-01T08:18:42.620Z,9.83
2022-12-01T08:21:15.742Z,9.83
2022-12-01T08:23:43.035Z,9.77
2022-12-01T08:26:15.029Z,9.70
2022-12-01T08:28:42.353Z,10.07
2022-12-01T08:31:15.630Z,10.20
2022-12-01T08:33:41.989Z,9.67
2022-12-01T08:36:08.603Z,9.10
2022-12-01T08:38:35.357Z,9.93
2022-12-01T08:41:07.446Z,9.73
2022-12-01T08:43:57.110Z,9.40
2022-12-01T08:46:26.595Z,8.63
2022-12-01T08:48:56.419Z,9.43
2022-12-01T08:51:22.771Z,8.77
2022-12-01T08:53:49.844Z,8.90
2022-12-01T08:56:34.770Z,8.90
2022-12-01T08:59:01.518Z,8.27
2022-12-01T09:01:28.481Z,8.57
2022-12-01T09:04:05.418Z,9.00
2022-12-01T09:06:41.893Z,10.27
2022-12-01T09:09:12.173Z,10.27
2022-12-01T09:11:39.560Z,10.90
2022-12-01T09:14:06.116Z,11.37
2022-12-01T09:16:32.440Z,10.90
2022-12-01T09:18:58.617Z,11.03
2022-12-01T09:21:29.577Z,10.43
2022-12-01T09:23:56.281Z,10.77
2022-12-01T09:26:23.329Z,10.20
2022-12-01T09:28:54.224Z,11.47
2022-12-01T09:31:22.621Z,10.50
2022-12-01T09:33:55.844Z,11.37
2022-12-01T09:36:22.078Z,11.60
2022-12-01T09:38:48.525Z,11.70
2022-12-01T09:41:37.485Z,13.03
2022-12-01T09:44:36.564Z,9.97
2022-12-01T09:47:06.198Z,11.07
2022-12-01T09:49:54.815Z,10.97
2022-12-01T09:52:26.067Z,12.00
2022-12-01T09:54:55.137Z,11.90
2022-12-01T09:57:37.655Z,12.10
2022-12-01T10:00:23.952Z,11.93
2022-12-01T10:03:20.613Z,12.57
2022-12-01T10:06:30.251Z,11.13
2022-12-01T10:09:25.617Z,11.67
2022-12-01T10:12:00.831Z,10.70
2022-12-01T10:14:32.621Z,10.67
2022-12-01T10:18:02.934Z,11.40
2022-12-01T10:20:49.064Z,11.23
2022-12-01T10:23:57.700Z,12.20
2022-12-01T10:27:00.630Z,10.97
2022-12-01T10:29:48.381Z,12.30
2022-12-01T10:32:38.024Z,11.43
2022-12-01T10:35:04.377Z,11.97
2022-12-01T10:37:32.364Z,11.87
2022-12-01T10:39:58.730Z,13.20
2022-12-01T10:42:42.391Z,13.43
2022-12-01T10:45:23.199Z,14.00
2022-12-01T10:48:22.162Z,13.23
2022-12-01T10:50:55.570Z,13.17
2022-12-01T10:53:35.739Z,14.03
2022-12-01T10:56:14.931Z,13.47
2022-12-01T10:58:54.326Z,14.33
2022-12-01T11:01:31.317Z,14.77
2022-12-01T11:04:20.907Z,14.07
2022-12-01T11:06:50.923Z,14.67
2022-12-01T11:09:26.559Z,16.73
2022-12-01T11:12:02.902Z,16.23
2022-12-01T11:14:52.879Z,17.07
2022-12-01T11:17:33.834Z,18.80
2022-12-01T11:20:32.942Z,20.93
2022-12-01T11:23:19.788Z,19.27
2022-12-01T11:26:13.909Z,19.67
2022-12-01T11:29:08.650Z,21.47
2022-12-01T11:31:46.948Z,20.23
2022-12-01T11:34:25.268Z,21.47
2022-12-01T11:36:56.285Z,22.30
2022-12-01T11:39:34.520Z,21.17
2022-12-01T11:42:28.691Z,23.90
2022-12-01T11:45:08.008Z,21.53
2022-12-01T11:47:34.269Z,24.17
2022-12-01T11:50:23.769Z,23.40
2022-12-01T11:52:49.928Z,23.50
2022-12-01T11:55:18.046Z,23.67
2022-12-01T11:57:50.060Z,22.40
2022-12-01T12:00:21.021Z,24.13
2022-12-01T12:03:20.373Z,25.20
2022-12-01T12:05:52.854Z,24.10
2022-12-01T12:08:52.103Z,23.23
2022-12-01T12:11:41.198Z,24.67
2022-12-01T12:14:54.269Z,23.73
2022-12-01T12:17:57.233Z,23.87
2022-12-01T12:20:53.523Z,22.87
2022-12-01T12:24:14.067Z,19.23
2022-12-01T12:27:08.112Z,24.33
2022-12-01T12:30:10.866Z,24.20
2022-12-01T12:33:19.417Z,21.80
2022-12-01T12:36:09.101Z,20.67
2022-12-01T12:39:15.127Z,22.30
2022-12-01T12:41:52.506Z,22.53
2022-12-01T12:44:47.982Z,22.00
2022-12-01T12:47:43.280Z,21.73
2022-12-01T12:50:28.956Z,23.37
2022-12-01T12:53:04.187Z,22.20
2022-12-01T12:55:39.005Z,23.27
2022-12-01T12:58:28.411Z,22.50
2022-12-01T13:01:06.042Z,22.07
2022-12-01T13:03:56.539Z,21.60
2022-12-01T13:06:38.521Z,21.53
2022-12-01T13:09:16.668Z,20.20
2022-12-01T13:12:05.747Z,19.17
2022-12-01T13:15:19.166Z,20.33
2022-12-01T13:17:57.971Z,17.87
2022-12-01T13:20:28.404Z,19.57
2022-12-01T13:22:58.788Z,18.67
2022-12-01T13:25:38.700Z,19.70
2022-12-01T13:28:21.299Z,19.47
2022-12-01T13:31:04.998Z,20.40
2022-12-01T13:33:33.071Z,18.27
2022-12-01T13:36:38.257Z,19.67
2022-12-01T13:39:00.946Z,19.63
2022-12-01T13:41:38.913Z,22.10
2022-12-01T13:44:25.690Z,22.67
2022-12-01T13:47:03.996Z,22.83
2022-12-01T13:49:43.734Z,23.00
2022-12-01T13:52:22.183Z,26.13
2022-12-01T13:55:08.697Z,24.90
2022-12-01T13:57:38.123Z,26.90
2022-12-01T14:00:26.515Z,26.50
2022-12-01T14:03:14.607Z,27.13
2022-12-01T14:05:51.553Z,24.97
2022-12-01T14:08:28.602Z,25.90
2022-12-01T14:11:30.054Z,25.17
2022-12-01T14:14:11.655Z,24.57
2022-12-01T14:16:55.057Z,24.10
2022-12-01T14:19:36.672Z,24.63
2022-12-01T14:22:06.452Z,25.00
2022-12-01T14:24:40.902Z,26.53
2022-12-01T14:27:11.021Z,24.53
2022-12-01T14:29:42.348Z,24.93
2022-12-01T14:32:08.609Z,24.00
2022-12-01T14:34:37.072Z,24.77
2022-12-01T14:37:36.584Z,26.43
2022-12-01T14:40:16.969Z,25.87
2022-12-01T14:43:07.988Z,26.03
2022-12-01T14:45:49.888Z,23.20
2022-12-01T14:48:27.211Z,23.37
2022-12-01T14:51:15.567Z,24.87
2022-12-01T14:53:45.825Z,23.33
2022-12-01T14:56:19.414Z,23.90
2022-12-01T14:58:58.527Z,24.07
2022-12-01T15:01:33.252Z,24.53
2022-12-01T15:04:04.247Z,26.47
2022-12-01T15:06:32.626Z,23.83
2022-12-01T15:09:36.192Z,24.73
2022-12-01T15:12:08.405Z,24.97
2022-12-01T15:14:48.579Z,22.97
2022-12-01T15:17:36.273Z,24.90
2022-12-01T15:20:03.284Z,24.73
2022-12-01T15:22:32.979Z,21.47
2022-12-01T15:25:14.825Z,23.47
2022-12-01T15:27:43.194Z,22.20
2022-12-01T15:30:14.857Z,22.53
2022-12-01T15:32:45.000Z,21.17
2022-12-01T15:35:22.085Z,23.63
2022-12-01T15:37:50.553Z,22.97
2022-12-01T15:43:18.971Z,24.27
2022-12-01T15:46:02.524Z,27.20
2022-12-01T15:48:35.730Z,25.00
2022-12-01T15:51:12.977Z,23.17
2022-12-01T15:53:50.558Z,24.57
2022-12-01T15:56:38.004Z,24.40
2022-12-01T15:59:36.156Z,21.17
2022-12-01T16:02:21.684Z,22.70
2022-12-01T16:04:58.173Z,22.37
2022-12-01T16:07:57.152Z,22.10
2022-12-01T16:10:33.594Z,22.53
2022-12-01T16:13:43.782Z,20.17
2022-12-01T16:16:44.864Z,22.07
2022-12-01T16:19:10.958Z,22.87
2022-12-01T16:22:13.300Z,21.90
2022-12-01T16:24:53.219Z,22.17
2022-12-01T16:27:29.488Z,22.07
2022-12-01T16:30:05.530Z,22.10
2022-12-01T16:32:39.363Z,24.43
2022-12-01T16:35:22.609Z,30.53
2022-12-01T16:37:48.826Z,30.77
2022-12-01T16:40:16.266Z,29.23
2022-12-01T16:42:46.531Z,29.97
2022-12-01T16:45:14.200Z,28.00
2022-12-01T16:47:41.918Z,24.93
2022-12-01T16:50:21.060Z,22.70
2022-12-01T16:52:47.365Z,25.60
2022-12-01T16:56:01.199Z,23.80
2022-12-01T16:58:27.726Z,22.33
2022-12-01T17:00:54.643Z,23.03
2022-12-01T17:03:24.784Z,21.10
2022-12-01T17:05:53.203Z,20.73
2022-12-01T17:08:20.785Z,21.73
2022-12-01T17:10:50.797Z,21.70
2022-12-01T17:13:19.670Z,21.07
2022-12-01T17:15:49.400Z,21.07
2022-12-01T17:18:21.185Z,22.03
2022-12-01T17:21:01.489Z,21.30
2022-12-01T17:23:28.314Z,21.03
2022-12-01T17:25:54.957Z,23.03
2022-12-01T17:28:21.541Z,21.67
2022-12-01T17:30:47.752Z,20.87
2022-12-01T17:33:14.143Z,20.40
2022-12-01T17:35:40.570Z,20.93
2022-12-01T17:38:06.955Z,18.67
2022-12-01T17:40:33.356Z,20.10
2022-12-01T17:43:00.345Z,19.17
2022-12-01T17:45:26.915Z,19.53
2022-12-01T17:47:54.565Z,19.77
2022-12-01T17:50:20.810Z,19.13
2022-12-01T17:52:47.131Z,17.60
2022-12-01T17:55:13.331Z,19.37
2022-12-01T17:57:39.523Z,20.70
2022-12-01T18:00:06.979Z,19.37
2022-12-01T18:02:37.064Z,20.43
2022-12-01T18:05:03.844Z,19.73
2022-12-01T18:07:30.191Z,18.07
2022-12-01T18:09:56.440Z,17.83
2022-12-01T18:12:22.670Z,17.47
2022-12-01T18:14:49.134Z,18.10
2022-12-01T18:17:15.517Z,18.60
2022-12-01T18:19:41.790Z,19.33
2022-12-01T18:22:07.983Z,19.43
2022-12-01T18:24:36.751Z,18.77
2022-12-01T18:27:03.073Z,19.13
2022-12-01T18:29:29.383Z,19.23
2022-12-01T18:31:58.103Z,25.07
2022-12-01T18:34:28.564Z,24.23
2022-12-01T18:36:54.867Z,24.03
2022-12-01T18:39:21.398Z,21.67
2022-12-01T18:41:48.385Z,20.57
2022-12-01T18:44:14.800Z,20.00
2022-12-01T18:46:41.087Z,21.33
2022-12-01T18:49:08.492Z,20.30
2022-12-01T18:51:37.640Z,20.63
2022-12-01T18:54:07.149Z,18.93
2022-12-01T18:56:34.588Z,19.33
2022-12-01T18:59:04.271Z,20.13
2022-12-01T19:01:37.794Z,19.07
2022-12-01T19:04:06.661Z,16.73
2022-12-01T19:06:36.382Z,18.70
2022-12-01T19:09:08.352Z,17.57
2022-12-01T19:11:35.455Z,23.30
2022-12-01T19:14:02.838Z,21.23
2022-12-01T19:16:30.278Z,18.57
2022-12-01T19:18:56.743Z,19.47
2022-12-01T19:21:23.090Z,19.43
2022-12-01T19:23:49.726Z,19.13
2022-12-01T19:26:21.081Z,19.43
2022-12-01T19:28:48.359Z,18.87
2022-12-01T19:31:19.522Z,19.13
2022-12-01T19:33:46.667Z,18.27
2022-12-01T19:36:21.126Z,19.37
2022-12-01T19:38:47.870Z,18.27
2022-12-01T19:41:15.603Z,19.47
2022-12-01T19:43:42.633Z,18.97
2022-12-01T19:46:13.963Z,19.47
2022-12-01T19:48:41.548Z,19.07
2022-12-01T19:51:26.220Z,16.03
2022-12-01T19:53:53.730Z,17.40
2022-12-01T19:56:21.357Z,19.33
2022-12-01T19:58:47.973Z,20.50
2022-12-01T20:01:17.413Z,13.77
2022-12-01T20:03:48.999Z,18.57
2022-12-01T20:06:19.975Z,17.63
2022-12-01T20:08:46.596Z,18.60
2022-12-01T20:11:14.124Z,16.77
2022-12-01T20:13:43.222Z,18.53
2022-12-01T20:16:12.356Z,18.20
2022-12-01T20:18:39.965Z,17.70
2022-12-01T20:21:20.140Z,18.90
2022-12-01T20:23:50.654Z,18.97
2022-12-01T20:26:19.305Z,17.03
2022-12-01T20:28:49.067Z,17.33
2022-12-01T20:31:20.867Z,17.43
2022-12-01T20:33:48.066Z,17.10
2022-12-01T20:36:15.032Z,17.60
2022-12-01T20:38:41.517Z,16.83
2022-12-01T20:41:07.795Z,18.57
2022-12-01T20:43:34.598Z,18.70
2022-12-01T20:46:03.369Z,17.03
2022-12-01T20:48:30.893Z,16.53
2022-12-01T20:51:00.656Z,17.03
2022-12-01T20:53:26.992Z,17.43
2022-12-01T20:55:53.606Z,18.10
2022-12-01T20:58:20.266Z,17.17
2022-12-01T21:00:46.473Z,17.30
2022-12-01T21:03:13.480Z,18.47
2022-12-01T21:05:43.034Z,20.60
2022-12-01T21:08:12.647Z,19.43
2022-12-01T21:10:43.959Z,17.63
2022-12-01T21:13:41.356Z,17.10
2022-12-01T21:16:15.738Z,17.70
2022-12-01T21:18:59.495Z,20.13
2022-12-01T21:21:33.760Z,17.30
2022-12-01T21:24:11.527Z,17.80
2022-12-01T21:26:53.916Z,17.93
2022-12-01T21:29:38.367Z,16.67
2022-12-01T21:32:30.911Z,16.80
2022-12-01T21:35:24.517Z,16.70
2022-12-01T21:37:59.829Z,15.23
2022-12-01T21:40:27.845Z,14.57
2022-12-01T21:42:57.723Z,16.77
2022-12-01T21:45:28.050Z,16.87
2022-12-01T21:48:11.133Z,17.07
2022-12-01T21:50:37.507Z,16.10
2022-12-01T21:53:15.660Z,15.83
2022-12-01T21:55:45.395Z,16.13
2022-12-01T21:58:30.060Z,17.80
2022-12-01T22:00:58.641Z,14.30
2022-12-01T22:03:38.833Z,15.90
2022-12-01T22:06:34.519Z,14.53
2022-12-01T22:09:13.533Z,15.57
2022-12-01T22:11:46.945Z,16.97
2022-12-01T22:14:32.843Z,15.03
2022-12-01T22:17:14.568Z,14.27
2022-12-01T22:19:47.279Z,14.47
2022-12-01T22:22:25.208Z,14.13
2022-12-01T22:24:57.423Z,14.67
2022-12-01T22:27:28.447Z,14.30
2022-12-01T22:30:06.725Z,14.77
2022-12-01T22:32:58.663Z,11.10
2022-12-01T22:35:48.866Z,14.30
2022-12-01T22:38:35.400Z,12.40
2022-12-01T22:41:15.041Z,12.17
2022-12-01T22:43:44.898Z,12.57
2022-12-01T22:46:32.176Z,13.30
2022-12-01T22:49:26.220Z,13.80
2022-12-01T22:52:09.326Z,12.43
2022-12-01T22:54:44.806Z,11.33
2022-12-01T22:57:32.359Z,12.47
2022-12-01T23:00:14.598Z,12.47
2022-12-01T23:02:41.026Z,12.63
2022-12-01T23:05:24.772Z,14.47
2022-12-01T23:07:52.864Z,13.33
2022-12-01T23:10:23.194Z,11.03
2022-12-01T23:12:53.977Z,13.07
2022-12-01T23:15:27.816Z,15.27
2022-12-01T23:17:54.401Z,12.53
2022-12-01T23:20:28.016Z,12.87
2022-12-01T23:23:02.180Z,14.77
2022-12-01T23:25:29.654Z,15.03
2022-12-01T23:28:07.181Z,13.10
2022-12-01T23:30:38.524Z,13.87
2022-12-01T23:33:18.606Z,14.40
2022-12-01T23:36:02.057Z,13.70
2022-12-01T23:38:46.039Z,13.77
2022-12-01T23:41:38.097Z,13.23
2022-12-01T23:44:36.724Z,13.93
2022-12-01T23:47:03.121Z,14.73
2022-12-01T23:49:33.819Z,14.80
2022-12-01T23:52:03.039Z,12.20
2022-12-01T23:54:33.824Z,14.53
2022-12-01T23:57:24.374Z,14.70
2022-12-01T23:59:56.958Z,14.17
